Time;durP1;ratioP1;P1;durP2;ratioP2;P2;SDS_P1;SDS_P2;PMS_P1;PMS_P2;Temp;Humidity;BMP_temperature;BMP_pressure;BME280_temperature;BME280_humidity;BME280_pressure;Samples;Min_cycle;Max_cycle;Signal;HPM_P1;HPM_P2
2023/07/27 00:00:47;;;;;;;10.35;9.23;;;12.70;99.90;;;;;;5114143;27;20421;-39
2023/07/27 00:03:12;;;;;;;13.18;9.15;;;12.60;99.90;;;;;;5114669;27;20047;-39
2023/07/27 00:05:38;;;;;;;11.13;9.30;;;12.60;99.90;;;;;;5116174;27;20043;-38
2023/07/27 00:08:04;;;;;;;13.50;9.50;;;12.60;99.90;;;;;;5114471;27;20054;-39
2023/07/27 00:10:29;;;;;;;10.75;9.20;;;12.50;99.90;;;;;;5116737;27;20050;-39
2023/07/27 00:12:55;;;;;;;13.45;9.45;;;12.50;99.90;;;;;;5117692;27;20062;-39
2023/07/27 00:15:21;;;;;;;11.57;8.98;;;12.50;99.90;;;;;;5107018;27;20047;-39
2023/07/27 00:17:47;;;;;;;12.93;10.18;;;12.50;99.90;;;;;;5112223;27;20219;-39
2023/07/27 00:20:13;;;;;;;12.90;9.50;;;12.50;99.90;;;;;;5117435;27;20049;-39
2023/07/27 00:22:39;;;;;;;11.70;9.45;;;12.50;99.90;;;;;;5117775;27;20618;-39
2023/07/27 00:25:05;;;;;;;12.30;10.13;;;12.50;99.90;;;;;;5109507;27;20093;-39
2023/07/27 00:27:31;;;;;;;11.80;9.35;;;12.50;99.90;;;;;;5116061;27;20457;-39
2023/07/27 00:29:56;;;;;;;12.88;9.85;;;12.50;99.90;;;;;;5098572;27;20149;-39
2023/07/27 00:32:22;;;;;;;11.85;10.05;;;12.50;99.90;;;;;;5117645;27;20496;-39
2023/07/27 00:34:51;;;;;;;17.13;11.32;;;12.60;99.90;;;;;;5117025;27;20103;-39
2023/07/27 00:37:17;;;;;;;12.32;9.43;;;12.60;99.90;;;;;;5116424;27;20047;-39
2023/07/27 00:39:43;;;;;;;12.05;9.40;;;12.60;99.90;;;;;;5116526;27;20054;-39
2023/07/27 00:42:08;;;;;;;13.15;9.70;;;12.60;99.90;;;;;;5117160;27;20346;-39
2023/07/27 00:44:34;;;;;;;11.57;9.05;;;12.60;99.90;;;;;;5117104;27;20126;-39
2023/07/27 00:47:00;;;;;;;12.35;9.57;;;12.50;99.90;;;;;;5117323;27;20408;-39
2023/07/27 00:49:26;;;;;;;11.82;9.48;;;12.60;99.90;;;;;;5116360;27;20890;-39
2023/07/27 00:51:53;;;;;;;11.40;9.05;;;12.60;99.90;;;;;;5098598;27;20043;-39
2023/07/27 00:54:18;;;;;;;12.02;8.48;;;12.60;99.90;;;;;;5117251;27;20646;-39
2023/07/27 00:56:44;;;;;;;11.02;9.40;;;12.60;99.90;;;;;;5117002;27;20130;-39
2023/07/27 00:59:10;;;;;;;11.88;8.85;;;12.60;99.90;;;;;;5116403;27;20575;-39
2023/07/27 01:01:36;;;;;;;10.57;9.32;;;12.60;99.90;;;;;;5116692;27;20051;-39
2023/07/27 01:04:02;;;;;;;12.27;9.50;;;12.60;99.90;;;;;;5117982;27;20047;-39
2023/07/27 01:06:29;;;;;;;12.63;9.35;;;12.60;99.90;;;;;;5117456;27;20417;-39
2023/07/27 01:08:55;;;;;;;11.40;9.20;;;12.70;99.90;;;;;;5111508;27;20051;-39
2023/07/27 01:11:42;;;;;;;13.00;8.90;;;12.70;99.90;;;;;;5097777;27;20098;-39
2023/07/27 01:14:33;;;;;;;13.85;9.30;;;12.70;99.90;;;;;;5116579;27;20047;-39
2023/07/27 01:17:06;;;;;;;12.02;8.80;;;12.70;99.90;;;;;;5104879;27;20471;-39
2023/07/27 01:19:54;;;;;;;11.52;8.18;;;12.70;99.90;;;;;;5115800;27;20541;-39
2023/07/27 01:22:32;;;;;;;12.05;9.13;;;12.70;99.90;;;;;;5116043;27;20090;-39
2023/07/27 01:25:25;;;;;;;13.02;9.18;;;12.70;99.90;;;;;;5107149;27;20512;-39
2023/07/27 01:28:15;;;;;;;10.15;8.95;;;12.70;99.90;;;;;;5115617;27;20524;-38
2023/07/27 01:31:06;;;;;;;11.68;8.63;;;12.80;99.90;;;;;;5116638;27;20606;-39
2023/07/27 01:33:37;;;;;;;10.57;8.20;;;12.80;99.90;;;;;;5117489;27;20435;-39
2023/07/27 01:36:15;;;;;;;12.52;8.73;;;12.80;99.90;;;;;;5117480;27;20099;-39
2023/07/27 01:38:43;;;;;;;11.82;8.93;;;12.80;99.90;;;;;;5114970;27;20047;-39
2023/07/27 01:41:10;;;;;;;9.63;8.60;;;12.80;99.90;;;;;;5117569;27;20047;-39
2023/07/27 01:43:38;;;;;;;10.18;8.27;;;12.80;99.90;;;;;;5116869;27;20525;-39
2023/07/27 01:46:06;;;;;;;9.85;8.57;;;12.90;99.90;;;;;;5117161;27;20055;-39
2023/07/27 01:48:35;;;;;;;10.02;8.38;;;12.90;99.90;;;;;;5115888;27;20043;-39
2023/07/27 01:51:03;;;;;;;10.57;8.15;;;13.00;99.90;;;;;;5117000;27;20127;-39
2023/07/27 01:53:29;;;;;;;10.15;8.73;;;13.00;99.90;;;;;;5116317;27;20058;-39
2023/07/27 01:55:55;;;;;;;9.77;8.02;;;13.00;99.90;;;;;;5117207;27;20050;-39
2023/07/27 01:58:23;;;;;;;11.65;9.20;;;13.10;99.90;;;;;;5114608;27;20046;-39
2023/07/27 02:00:49;;;;;;;10.18;8.38;;;13.10;99.90;;;;;;5113645;27;20043;-39
2023/07/27 02:03:16;;;;;;;11.18;8.95;;;13.20;99.90;;;;;;5113025;27;20055;-39
2023/07/27 02:05:41;;;;;;;11.68;9.93;;;13.20;99.90;;;;;;5113812;27;20089;-39
2023/07/27 02:08:07;;;;;;;11.38;8.63;;;13.20;99.90;;;;;;5108975;27;20154;-39
2023/07/27 02:10:34;;;;;;;11.10;8.70;;;13.20;99.90;;;;;;5115155;27;20047;-39
2023/07/27 02:13:14;;;;;;;12.80;9.00;;;13.20;99.90;;;;;;5096633;27;20286;-39
2023/07/27 02:15:46;;;;;;;11.95;9.15;;;13.20;99.90;;;;;;5103363;27;20614;-39
2023/07/27 02:18:18;;;;;;;11.10;8.73;;;13.20;99.90;;;;;;5100747;27;20047;-39
2023/07/27 02:20:46;;;;;;;11.85;9.68;;;13.20;99.90;;;;;;5116166;27;20381;-39
2023/07/27 02:23:14;;;;;;;11.90;9.20;;;13.20;99.90;;;;;;5112991;27;20051;-39
2023/07/27 02:25:40;;;;;;;10.43;8.68;;;13.20;99.90;;;;;;5110400;27;20155;-39
2023/07/27 02:28:10;;;;;;;12.20;9.35;;;13.20;99.90;;;;;;5114658;27;20418;-39
2023/07/27 02:30:35;;;;;;;10.85;8.70;;;13.20;99.90;;;;;;5115649;27;20153;-39
2023/07/27 02:33:01;;;;;;;11.00;8.98;;;13.20;99.90;;;;;;5076502;28;20047;-39
2023/07/27 02:35:26;;;;;;;10.07;8.52;;;13.20;99.90;;;;;;5111318;27;20126;-39
2023/07/27 02:37:52;;;;;;;12.25;8.48;;;13.20;99.90;;;;;;5114717;27;20596;-39
2023/07/27 02:40:18;;;;;;;10.75;8.32;;;13.20;99.90;;;;;;5116025;27;20481;-39
2023/07/27 02:42:43;;;;;;;15.80;8.95;;;13.20;99.90;;;;;;5116128;27;20509;-39
2023/07/27 02:45:09;;;;;;;10.65;8.27;;;13.20;99.90;;;;;;5115563;27;20086;-39
2023/07/27 02:47:35;;;;;;;10.18;7.93;;;13.20;99.90;;;;;;5095507;27;20047;-39
2023/07/27 02:50:01;;;;;;;11.98;8.02;;;13.20;99.90;;;;;;5080868;27;20374;-39
2023/07/27 02:52:26;;;;;;;11.68;10.32;;;13.20;99.90;;;;;;5116697;27;20497;-39
2023/07/27 02:54:52;;;;;;;10.57;9.40;;;13.20;99.90;;;;;;5135722;27;20555;-39
2023/07/27 02:57:18;;;;;;;12.82;9.90;;;13.10;99.90;;;;;;5135002;27;20522;-39
2023/07/27 02:59:43;;;;;;;15.10;9.48;;;13.20;99.90;;;;;;5100294;27;20043;-39
2023/07/27 03:02:09;;;;;;;11.88;9.88;;;13.10;99.90;;;;;;5115233;27;20101;-39
2023/07/27 03:04:35;;;;;;;11.90;9.38;;;13.20;99.90;;;;;;5114668;27;20043;-39
2023/07/27 03:07:00;;;;;;;12.30;9.90;;;13.20;99.90;;;;;;5114878;27;20255;-39
2023/07/27 03:09:26;;;;;;;11.55;10.35;;;13.20;99.90;;;;;;5091565;27;20272;-39
2023/07/27 03:11:52;;;;;;;19.83;10.77;;;13.20;99.90;;;;;;5115122;27;20051;-40
2023/07/27 03:14:17;;;;;;;12.73;10.82;;;13.20;99.90;;;;;;5113927;27;20517;-39
2023/07/27 03:16:43;;;;;;;12.40;10.32;;;13.20;99.90;;;;;;5108338;27;20050;-39
2023/07/27 03:19:09;;;;;;;13.93;10.18;;;13.20;99.90;;;;;;5108137;27;20645;-40
2023/07/27 03:21:34;;;;;;;12.68;10.40;;;13.20;99.90;;;;;;5114233;27;20043;-39
2023/07/27 03:24:00;;;;;;;13.10;11.07;;;13.10;99.90;;;;;;5086561;27;20099;-40
2023/07/27 03:26:26;;;;;;;14.27;11.02;;;13.20;99.90;;;;;;5114481;27;20169;-39
2023/07/27 03:28:51;;;;;;;12.73;10.50;;;13.20;99.90;;;;;;5112949;27;20226;-39
2023/07/27 03:31:19;;;;;;;13.05;10.88;;;13.20;99.90;;;;;;5114143;27;20054;-40
2023/07/27 03:33:45;;;;;;;13.38;10.75;;;13.20;99.90;;;;;;5095825;27;20532;-39
2023/07/27 03:36:12;;;;;;;13.77;11.38;;;13.20;99.90;;;;;;5114603;27;20051;-40
2023/07/27 03:38:38;;;;;;;19.85;11.45;;;13.20;99.90;;;;;;5113675;27;20580;-40
2023/07/27 03:41:03;;;;;;;15.90;11.23;;;13.20;99.90;;;;;;5117770;27;20053;-40
2023/07/27 03:43:29;;;;;;;14.30;11.25;;;13.20;99.90;;;;;;5119091;27;20058;-40
2023/07/27 03:45:55;;;;;;;15.80;13.18;;;13.10;99.90;;;;;;5118995;27;20099;-40
2023/07/27 03:48:20;;;;;;;18.45;12.65;;;13.10;99.90;;;;;;5117919;27;20154;-39
2023/07/27 03:50:46;;;;;;;18.08;13.10;;;13.10;99.90;;;;;;5099599;27;20330;-39
2023/07/27 03:53:12;;;;;;;18.60;13.88;;;13.10;99.90;;;;;;5099983;27;20043;-40
2023/07/27 03:55:37;;;;;;;19.58;13.43;;;13.10;99.90;;;;;;5118475;27;20087;-39
2023/07/27 03:58:03;;;;;;;18.85;14.77;;;13.00;99.90;;;;;;5116749;27;20158;-39
2023/07/27 04:00:29;;;;;;;24.10;14.63;;;13.10;99.90;;;;;;5118290;27;20079;-39
2023/07/27 04:02:54;;;;;;;20.92;15.20;;;13.10;99.90;;;;;;5101667;27;20105;-40
2023/07/27 04:05:20;;;;;;;21.35;14.65;;;13.10;99.90;;;;;;5115970;27;20050;-39
2023/07/27 04:07:49;;;;;;;22.38;15.43;;;13.10;99.90;;;;;;5114356;27;20046;-40
2023/07/27 04:10:15;;;;;;;20.85;15.63;;;13.10;99.90;;;;;;5113661;27;20043;-39
2023/07/27 04:12:41;;;;;;;19.63;15.13;;;13.10;99.90;;;;;;5117070;27;20126;-40
2023/07/27 04:15:07;;;;;;;19.35;15.77;;;13.10;99.90;;;;;;5109668;27;20047;-39
2023/07/27 04:17:32;;;;;;;17.83;15.75;;;13.10;99.90;;;;;;5125932;27;20319;-39
2023/07/27 04:19:58;;;;;;;22.48;16.85;;;13.10;99.90;;;;;;5137859;27;20047;-39
2023/07/27 04:22:24;;;;;;;21.75;15.75;;;13.10;99.90;;;;;;5138134;27;20111;-40
2023/07/27 04:24:50;;;;;;;24.30;16.23;;;13.10;99.90;;;;;;5112754;27;20759;-40
2023/07/27 04:27:15;;;;;;;24.75;16.33;;;13.20;99.90;;;;;;5115494;27;20050;-40
2023/07/27 04:29:41;;;;;;;20.75;15.52;;;13.20;99.90;;;;;;5117309;27;20043;-39
2023/07/27 04:32:08;;;;;;;21.27;16.48;;;13.20;99.90;;;;;;5117457;27;20524;-40
2023/07/27 04:34:34;;;;;;;20.25;14.98;;;13.30;99.90;;;;;;5118509;27;20047;-39
2023/07/27 04:37:00;;;;;;;23.02;16.75;;;13.30;99.90;;;;;;5116827;27;20099;-40
2023/07/27 04:39:26;;;;;;;19.33;16.25;;;13.30;99.90;;;;;;5116862;27;20051;-40
2023/07/27 04:41:52;;;;;;;19.50;14.63;;;13.20;99.90;;;;;;5099070;27;20043;-39
2023/07/27 04:44:17;;;;;;;22.67;16.05;;;13.30;99.90;;;;;;5117809;27;20535;-40
2023/07/27 04:46:43;;;;;;;18.20;15.10;;;13.40;99.90;;;;;;5116769;27;20078;-40
2023/07/27 04:49:08;;;;;;;18.92;15.35;;;13.40;99.90;;;;;;5115990;27;20133;-40
2023/07/27 04:51:34;;;;;;;19.52;15.50;;;13.40;99.90;;;;;;5115939;27;20079;-39
2023/07/27 04:54:01;;;;;;;18.02;15.48;;;13.50;99.90;;;;;;5116728;27;20050;-39
2023/07/27 04:56:26;;;;;;;19.00;14.10;;;13.50;99.90;;;;;;5116939;27;20112;-39
2023/07/27 04:58:52;;;;;;;17.77;15.10;;;13.50;99.90;;;;;;5117317;27;20228;-40
2023/07/27 05:01:18;;;;;;;19.60;15.35;;;13.60;99.90;;;;;;5117648;27;20900;-40
2023/07/27 05:03:43;;;;;;;16.50;14.23;;;13.70;99.90;;;;;;5098676;27;20051;-40
2023/07/27 05:06:09;;;;;;;16.02;14.18;;;13.70;99.90;;;;;;5117275;27;20642;-40
2023/07/27 05:08:35;;;;;;;17.52;13.95;;;13.70;99.90;;;;;;5111320;27;20043;-40
2023/07/27 05:11:03;;;;;;;18.10;15.15;;;13.70;99.90;;;;;;5116879;27;20046;-40
2023/07/27 05:13:28;;;;;;;19.23;14.75;;;13.70;99.90;;;;;;5098237;27;20070;-40
2023/07/27 05:15:54;;;;;;;18.17;14.48;;;13.80;99.90;;;;;;5102929;27;20493;-40
2023/07/27 05:18:20;;;;;;;16.58;14.77;;;13.80;99.90;;;;;;5113387;27;20483;-40
2023/07/27 05:20:45;;;;;;;16.05;13.10;;;13.80;99.90;;;;;;5136716;27;20513;-40
2023/07/27 05:23:11;;;;;;;17.50;13.43;;;13.90;99.90;;;;;;5131688;27;20058;-40
2023/07/27 05:25:36;;;;;;;17.10;13.25;;;14.00;99.90;;;;;;5126939;27;20492;-40
2023/07/27 05:28:02;;;;;;;17.40;13.77;;;14.10;99.90;;;;;;5135414;27;20038;-40
2023/07/27 05:30:28;;;;;;;18.85;12.95;;;14.10;99.90;;;;;;5121909;27;20552;-40
2023/07/27 05:32:54;;;;;;;15.10;13.45;;;14.10;99.90;;;;;;5137148;27;20052;-41
2023/07/27 05:35:19;;;;;;;16.45;11.88;;;14.10;99.90;;;;;;5135149;27;20046;-40
2023/07/27 05:37:46;;;;;;;13.68;11.00;;;14.10;99.90;;;;;;5115739;27;20043;-40
2023/07/27 05:40:15;;;;;;;18.25;13.40;;;14.10;99.90;;;;;;5079587;27;20578;-39
2023/07/27 05:42:42;;;;;;;13.77;11.48;;;14.10;99.90;;;;;;5116412;27;20054;-40
2023/07/27 05:45:08;;;;;;;14.73;12.35;;;14.20;99.90;;;;;;5116707;27;20113;-40
2023/07/27 05:47:34;;;;;;;14.20;11.32;;;14.20;99.90;;;;;;5097215;27;20042;-40
2023/07/27 05:50:00;;;;;;;15.52;10.45;;;14.30;99.90;;;;;;5116255;27;20042;-40
2023/07/27 05:52:26;;;;;;;11.50;10.13;;;14.30;99.90;;;;;;5116676;27;20358;-40
2023/07/27 05:54:51;;;;;;;12.57;10.85;;;14.40;99.90;;;;;;5097796;27;20580;-40
2023/07/27 05:57:17;;;;;;;13.90;10.27;;;14.40;99.90;;;;;;5096782;27;20568;-43
2023/07/27 05:59:43;;;;;;;13.05;11.18;;;14.50;99.90;;;;;;5116211;27;20108;-40
2023/07/27 06:02:09;;;;;;;12.77;10.52;;;14.50;99.90;;;;;;5097368;27;20637;-40
2023/07/27 06:04:35;;;;;;;13.30;10.32;;;14.50;99.90;;;;;;5115532;27;20081;-40
2023/07/27 06:07:00;;;;;;;15.05;11.20;;;14.50;99.90;;;;;;5114158;27;20070;-40
2023/07/27 06:09:26;;;;;;;15.70;12.20;;;14.50;99.90;;;;;;5110864;27;20051;-40
2023/07/27 06:11:52;;;;;;;14.13;11.27;;;14.50;99.90;;;;;;5115207;27;20043;-40
2023/07/27 06:14:18;;;;;;;13.77;11.52;;;14.50;99.90;;;;;;5113834;27;20047;-40
2023/07/27 06:16:44;;;;;;;15.43;12.05;;;14.50;99.90;;;;;;5102896;27;20043;-40
2023/07/27 06:19:10;;;;;;;13.88;12.43;;;14.50;99.90;;;;;;5095986;27;20103;-40
2023/07/27 06:21:36;;;;;;;15.48;12.57;;;14.60;99.90;;;;;;5115381;27;20047;-40
2023/07/27 06:24:02;;;;;;;13.02;10.93;;;14.60;99.90;;;;;;5108681;27;20466;-40
2023/07/27 06:26:28;;;;;;;16.13;11.70;;;14.60;99.90;;;;;;5127825;27;20062;-40
2023/07/27 06:28:53;;;;;;;13.07;11.15;;;14.60;99.90;;;;;;5095375;27;20349;-40
2023/07/27 06:31:19;;;;;;;11.30;10.13;;;14.70;99.90;;;;;;5095811;27;20409;-40
2023/07/27 06:33:45;;;;;;;13.88;12.23;;;14.70;99.90;;;;;;5115191;27;20079;-40
2023/07/27 06:36:17;;;;;;;14.00;11.55;;;14.70;99.90;;;;;;5077001;28;20505;-40
2023/07/27 06:38:43;;;;;;;13.90;12.45;;;14.70;99.90;;;;;;5109509;27;20042;-40
2023/07/27 06:41:09;;;;;;;12.80;11.20;;;14.80;99.90;;;;;;5096143;27;20146;-40
2023/07/27 06:43:35;;;;;;;12.88;10.23;;;14.80;99.90;;;;;;5115327;27;20043;-40
2023/07/27 06:46:00;;;;;;;12.50;10.65;;;14.80;99.90;;;;;;5115670;27;20047;-40
2023/07/27 06:48:26;;;;;;;14.90;10.95;;;14.80;99.90;;;;;;5114450;27;20050;-40
2023/07/27 06:50:52;;;;;;;13.10;10.85;;;14.80;99.90;;;;;;5115295;27;20043;-40
2023/07/27 06:53:18;;;;;;;14.75;11.20;;;14.80;99.90;;;;;;5114851;27;20154;-40
2023/07/27 06:55:44;;;;;;;13.55;10.35;;;14.90;99.90;;;;;;5114958;27;20097;-40
2023/07/27 06:58:09;;;;;;;12.40;10.48;;;14.90;99.90;;;;;;5114412;27;20047;-40
2023/07/27 07:00:35;;;;;;;12.25;10.70;;;14.90;99.90;;;;;;5114360;27;20035;-40
2023/07/27 07:03:01;;;;;;;13.45;11.15;;;14.90;99.90;;;;;;5115067;27;20367;-40
2023/07/27 07:05:27;;;;;;;12.05;10.07;;;15.00;99.90;;;;;;5115381;27;20147;-40
2023/07/27 07:07:53;;;;;;;12.27;10.27;;;15.00;99.90;;;;;;5111797;27;20039;-40
2023/07/27 07:10:18;;;;;;;12.27;10.32;;;15.10;99.90;;;;;;5111048;27;20058;-40
2023/07/27 07:12:45;;;;;;;11.77;9.75;;;15.20;99.90;;;;;;5113855;27;20082;-40
2023/07/27 07:15:11;;;;;;;12.02;9.88;;;15.30;99.90;;;;;;5104613;27;20048;-40
2023/07/27 07:17:37;;;;;;;11.77;9.20;;;15.40;99.90;;;;;;5123812;27;20698;-40
2023/07/27 07:20:08;;;;;;;9.98;8.98;;;15.40;99.90;;;;;;5134653;27;20046;-40
2023/07/27 07:22:34;;;;;;;11.10;9.70;;;15.50;99.90;;;;;;5134347;27;20122;-40
2023/07/27 07:25:00;;;;;;;9.27;8.43;;;15.50;99.90;;;;;;5108422;27;20047;-40
2023/07/27 07:27:25;;;;;;;8.20;7.40;;;15.50;99.90;;;;;;5113206;27;20093;-40
2023/07/27 07:29:51;;;;;;;9.82;8.82;;;15.50;99.90;;;;;;5094188;28;20086;-40
2023/07/27 07:32:17;;;;;;;10.02;9.02;;;15.50;99.90;;;;;;5095864;28;20345;-40
2023/07/27 07:34:42;;;;;;;10.43;9.20;;;15.60;99.90;;;;;;5113957;27;20108;-40
2023/07/27 07:37:08;;;;;;;10.60;9.50;;;15.50;99.90;;;;;;5112504;27;20089;-40
2023/07/27 07:39:33;;;;;;;9.82;8.93;;;15.50;99.90;;;;;;5096641;28;20536;-40
2023/07/27 07:42:00;;;;;;;9.70;8.70;;;15.50;99.90;;;;;;5114958;27;20088;-40
2023/07/27 07:44:26;;;;;;;9.95;8.95;;;15.50;99.90;;;;;;5115725;27;20221;-40
2023/07/27 07:46:52;;;;;;;7.90;7.15;;;15.40;99.90;;;;;;5113573;27;20047;-40
2023/07/27 07:49:17;;;;;;;8.60;7.70;;;15.40;99.90;;;;;;5115092;27;20607;-40
2023/07/27 07:51:43;;;;;;;8.70;7.72;;;15.40;99.90;;;;;;5114858;27;20411;-40
2023/07/27 07:54:09;;;;;;;7.68;6.85;;;15.40;99.90;;;;;;5116246;27;20070;-40
2023/07/27 07:56:35;;;;;;;8.13;7.43;;;15.40;99.90;;;;;;5116236;27;21793;-40
2023/07/27 07:59:01;;;;;;;9.15;8.13;;;15.50;99.90;;;;;;5114900;27;20051;-40
2023/07/27 08:01:27;;;;;;;8.60;7.68;;;15.50;99.90;;;;;;5096997;27;20054;-40
2023/07/27 08:03:53;;;;;;;8.50;7.60;;;15.50;99.90;;;;;;5114947;27;20382;-40
2023/07/27 08:06:18;;;;;;;5.72;5.22;;;15.60;99.90;;;;;;5114433;27;20749;-40
2023/07/27 08:08:45;;;;;;;7.93;7.18;;;15.60;99.90;;;;;;5089818;28;20157;-40
2023/07/27 08:11:11;;;;;;;7.50;6.80;;;15.60;99.90;;;;;;5113992;27;20042;-40
2023/07/27 08:13:36;;;;;;;6.68;6.07;;;15.60;99.90;;;;;;5114343;28;20445;-40
2023/07/27 08:16:05;;;;;;;8.00;6.20;;;15.60;99.90;;;;;;5101850;27;20509;-40
2023/07/27 08:18:32;;;;;;;5.18;4.68;;;15.60;99.90;;;;;;5133816;27;20078;-41
2023/07/27 08:21:03;;;;;;;6.40;5.40;;;15.70;99.90;;;;;;5134698;27;20425;-40
2023/07/27 08:23:29;;;;;;;5.78;5.28;;;15.70;99.90;;;;;;5101512;28;20059;-40
2023/07/27 08:25:59;;;;;;;5.57;5.07;;;15.70;99.90;;;;;;5130860;27;20137;-40
2023/07/27 08:28:25;;;;;;;6.05;5.47;;;15.70;99.90;;;;;;5137594;27;20073;-40
2023/07/27 08:30:51;;;;;;;5.32;4.45;;;15.80;99.90;;;;;;5137777;27;20563;-40
2023/07/27 08:33:17;;;;;;;5.63;5.10;;;15.80;99.90;;;;;;5138410;27;20042;-40
2023/07/27 08:35:43;;;;;;;7.32;6.22;;;15.80;99.90;;;;;;5137798;27;20042;-40
2023/07/27 08:38:09;;;;;;;6.18;5.47;;;15.80;99.90;;;;;;5137541;27;20050;-40
2023/07/27 08:40:34;;;;;;;6.55;5.68;;;15.90;99.90;;;;;;5138258;27;20409;-40
2023/07/27 08:43:04;;;;;;;7.63;4.90;;;16.00;99.90;;;;;;5138132;27;20054;-40
2023/07/27 08:45:30;;;;;;;5.18;4.75;;;16.10;99.90;;;;;;5138123;27;20480;-40
2023/07/27 08:47:56;;;;;;;6.18;5.60;;;16.10;99.90;;;;;;5136773;27;20548;-40
2023/07/27 08:50:23;;;;;;;5.60;5.05;;;16.20;99.90;;;;;;5118965;27;20421;-40
2023/07/27 08:52:49;;;;;;;4.15;3.85;;;16.20;99.90;;;;;;5137794;27;20107;-40
2023/07/27 08:55:15;;;;;;;5.90;5.03;;;16.30;99.90;;;;;;5118301;27;20565;-40
2023/07/27 08:57:41;;;;;;;5.18;4.68;;;16.30;99.90;;;;;;5123230;27;20088;-40
2023/07/27 09:00:09;;;;;;;5.30;4.80;;;16.30;99.90;;;;;;5116582;27;20047;-40
2023/07/27 09:02:35;;;;;;;6.15;5.60;;;16.40;99.90;;;;;;5116171;27;20039;-40
2023/07/27 09:05:01;;;;;;;5.80;5.30;;;16.40;99.90;;;;;;5116219;27;20047;-40
2023/07/27 09:07:27;;;;;;;7.35;5.70;;;16.40;99.90;;;;;;5115209;27;20092;-40
2023/07/27 09:09:53;;;;;;;5.20;4.78;;;16.40;99.90;;;;;;5093010;27;20043;-40
2023/07/27 09:12:22;;;;;;;4.95;4.30;;;16.40;99.90;;;;;;5117017;27;20047;-40
2023/07/27 09:14:48;;;;;;;6.95;5.22;;;16.50;99.90;;;;;;5111221;27;20090;-40
2023/07/27 09:17:14;;;;;;;6.00;5.40;;;16.60;99.90;;;;;;5119569;27;20076;-40
2023/07/27 09:19:43;;;;;;;5.28;3.83;;;16.60;99.90;;;;;;5137580;27;20042;-40
2023/07/27 09:22:11;;;;;;;5.60;4.97;;;16.60;99.90;;;;;;5138180;27;20047;-40
2023/07/27 09:24:37;;;;;;;5.10;4.40;;;16.70;99.90;;;;;;5113690;27;20137;-40
2023/07/27 09:27:09;;;;;;;5.18;4.72;;;16.60;99.90;;;;;;5115478;27;20639;-40
2023/07/27 09:29:35;;;;;;;5.78;4.53;;;16.70;99.90;;;;;;5103477;27;20175;-40
2023/07/27 09:32:01;;;;;;;5.70;5.20;;;16.60;99.90;;;;;;5115646;27;20618;-40
2023/07/27 09:34:29;;;;;;;5.32;4.82;;;16.70;99.90;;;;;;5116351;27;20047;-41
2023/07/27 09:36:56;;;;;;;4.53;4.13;;;16.80;99.90;;;;;;5114976;27;20046;-40
2023/07/27 09:39:24;;;;;;;4.47;4.07;;;16.70;99.90;;;;;;5116275;27;20568;-40
2023/07/27 09:41:51;;;;;;;5.38;4.93;;;16.80;99.90;;;;;;5097624;27;20386;-40
2023/07/27 09:44:19;;;;;;;4.82;4.43;;;16.80;99.90;;;;;;5116300;27;20075;-40
2023/07/27 09:46:45;;;;;;;4.75;4.35;;;16.90;99.90;;;;;;5114904;27;20472;-41
2023/07/27 09:49:12;;;;;;;5.22;4.80;;;16.90;99.90;;;;;;5115807;27;20043;-40
2023/07/27 09:51:38;;;;;;;5.40;5.00;;;17.00;99.90;;;;;;5115416;27;20050;-40
2023/07/27 09:54:05;;;;;;;5.13;4.50;;;17.10;99.90;;;;;;5116512;27;20192;-40
2023/07/27 09:56:31;;;;;;;6.35;5.85;;;17.20;99.90;;;;;;5115035;27;20172;-40
2023/07/27 09:58:58;;;;;;;5.18;4.78;;;17.30;99.90;;;;;;5115467;27;20109;-40
2023/07/27 10:01:24;;;;;;;5.57;5.07;;;17.40;99.90;;;;;;5098404;27;20047;-41
2023/07/27 10:03:50;;;;;;;5.22;4.82;;;17.40;99.90;;;;;;5115460;27;20043;-41
2023/07/27 10:06:17;;;;;;;5.28;4.88;;;17.30;99.90;;;;;;5097090;27;20127;-40
2023/07/27 10:08:44;;;;;;;5.57;4.85;;;17.30;99.90;;;;;;5109590;27;20505;-40
2023/07/27 10:11:10;;;;;;;6.13;5.63;;;17.30;99.90;;;;;;5115613;27;20114;-40
2023/07/27 10:13:41;;;;;;;5.03;4.63;;;17.20;99.90;;;;;;5116036;27;20073;-40
2023/07/27 10:16:09;;;;;;;5.07;4.68;;;17.30;99.90;;;;;;5115183;27;20688;-40
2023/07/27 10:18:44;;;;;;;5.78;5.28;;;17.30;99.90;;;;;;5114177;27;20130;-40
2023/07/27 10:21:28;;;;;;;6.18;5.68;;;17.30;99.90;;;;;;5114857;27;20117;-40
2023/07/27 10:23:56;;;;;;;6.18;5.68;;;17.40;99.90;;;;;;5107749;27;20170;-40
2023/07/27 10:26:51;;;;;;;6.13;5.63;;;17.30;99.90;;;;;;5115321;27;20054;-40
2023/07/27 10:29:26;;;;;;;6.63;6.13;;;17.30;99.90;;;;;;5116164;27;20468;-40
2023/07/27 10:32:10;;;;;;;6.55;6.05;;;17.40;99.90;;;;;;5097568;27;20073;-40
2023/07/27 10:34:38;;;;;;;6.93;6.32;;;17.50;99.90;;;;;;5115559;27;20050;-40
2023/07/27 10:37:06;;;;;;;7.10;6.50;;;17.60;99.90;;;;;;5114582;27;20049;-41
2023/07/27 10:39:34;;;;;;;7.55;6.85;;;17.60;99.90;;;;;;5116491;27;20416;-40
2023/07/27 10:42:19;;;;;;;7.72;6.97;;;17.70;99.90;;;;;;5115857;27;20043;-40
2023/07/27 10:44:54;;;;;;;8.15;7.55;;;17.70;99.90;;;;;;5097133;27;20126;-41
2023/07/27 10:47:25;;;;;;;8.15;7.55;;;17.70;99.90;;;;;;5113882;27;20043;-40
2023/07/27 10:49:56;;;;;;;9.27;8.57;;;17.70;99.90;;;;;;5113510;27;20496;-40
2023/07/27 10:52:39;;;;;;;9.80;9.00;;;17.60;99.90;;;;;;5097424;27;20039;-41
2023/07/27 10:55:06;;;;;;;;;;;17.60;99.90;;;;;;5115195;27;20043;-40
2023/07/27 10:57:33;;;;;;;10.50;9.55;;;17.60;99.90;;;;;;5114229;27;19938;-40
2023/07/27 10:59:59;;;;;;;11.23;10.13;;;17.70;99.90;;;;;;5115199;27;20131;-40
2023/07/27 11:02:28;;;;;;;11.10;10.20;;;17.80;99.90;;;;;;5113973;27;20513;-41
2023/07/27 11:04:55;;;;;;;10.30;9.35;;;17.80;99.90;;;;;;5096151;27;20148;-40
2023/07/27 11:07:32;;;;;;;11.27;10.25;;;17.90;99.90;;;;;;5095565;27;20055;-41
2023/07/27 11:10:06;;;;;;;10.38;9.48;;;18.00;99.90;;;;;;5109967;27;20054;-40
2023/07/27 11:12:44;;;;;;;10.55;9.65;;;18.10;99.90;;;;;;5114309;27;20421;-41
2023/07/27 11:15:20;;;;;;;11.18;10.27;;;18.10;99.90;;;;;;5105527;27;20070;-40
2023/07/27 11:17:48;;;;;;;10.82;9.93;;;18.00;99.90;;;;;;5110002;27;20138;-41
2023/07/27 11:20:16;;;;;;;11.02;10.23;;;18.00;99.90;;;;;;5106995;27;20282;-40
2023/07/27 11:22:42;;;;;;;12.23;10.65;;;18.00;99.90;;;;;;5089078;27;20043;-40
2023/07/27 11:25:09;;;;;;;10.65;9.75;;;18.00;99.90;;;;;;5118336;27;20404;-40
2023/07/27 11:27:37;;;;;;;10.68;9.73;;;18.00;99.90;;;;;;5115017;27;20615;-40
2023/07/27 11:30:06;;;;;;;9.60;8.90;;;18.00;99.90;;;;;;5136054;27;20161;-41
2023/07/27 11:32:32;;;;;;;8.50;7.88;;;18.10;99.90;;;;;;5116090;27;20055;-41
2023/07/27 11:34:58;;;;;;;8.73;7.82;;;18.20;99.90;;;;;;5135267;27;20107;-40
2023/07/27 11:37:30;;;;;;;9.18;8.35;;;18.20;99.90;;;;;;5135333;27;20042;-41
2023/07/27 11:39:57;;;;;;;8.00;7.40;;;18.20;99.90;;;;;;5136401;27;20042;-40
2023/07/27 11:42:34;;;;;;;9.25;7.72;;;18.30;99.90;;;;;;5136543;27;20035;-40
2023/07/27 11:45:00;;;;;;;8.77;8.07;;;18.30;99.90;;;;;;5135816;27;20047;-40
2023/07/27 11:47:26;;;;;;;13.25;8.82;;;18.30;99.90;;;;;;5135337;27;20050;-43
2023/07/27 11:49:54;;;;;;;8.00;7.20;;;18.30;99.90;;;;;;5101598;27;20454;-41
2023/07/27 11:52:25;;;;;;;8.68;7.93;;;18.30;99.90;;;;;;5095830;28;20077;-41
2023/07/27 11:54:52;;;;;;;7.75;7.15;;;18.40;99.90;;;;;;5114706;27;20123;-41
2023/07/27 11:57:18;;;;;;;7.80;7.20;;;18.30;99.90;;;;;;5113214;27;20497;-41
2023/07/27 12:00:06;;;;;;;7.75;7.15;;;18.30;99.90;;;;;;5113415;28;20449;-40
2023/07/27 12:02:33;;;;;;;6.70;6.10;;;18.30;99.90;;;;;;5118230;27;20126;-42
2023/07/27 12:05:00;;;;;;;7.13;6.43;;;18.40;99.90;;;;;;5118049;27;20047;-40
2023/07/27 12:07:31;;;;;;;5.82;5.43;;;18.60;99.90;;;;;;5117672;27;20051;-40
2023/07/27 12:09:57;;;;;;;5.72;5.22;;;18.50;99.90;;;;;;5114123;27;21043;-41
2023/07/27 12:12:23;;;;;;;5.15;4.50;;;18.70;99.90;;;;;;5118268;27;20137;-41
2023/07/27 12:14:49;;;;;;;4.40;4.00;;;18.80;99.90;;;;;;5112708;27;20044;-40
2023/07/27 12:17:14;;;;;;;3.70;3.40;;;19.00;99.90;;;;;;5108878;27;20057;-41
2023/07/27 12:19:40;;;;;;;3.28;2.95;;;19.20;99.90;;;;;;5117299;27;20509;-41
2023/07/27 12:22:06;;;;;;;5.10;4.05;;;19.30;99.90;;;;;;5118174;27;20047;-41
2023/07/27 12:24:31;;;;;;;4.10;3.38;;;19.40;99.90;;;;;;5115183;27;20049;-41
2023/07/27 12:26:58;;;;;;;4.55;3.97;;;19.60;99.90;;;;;;5136926;27;20109;-40
2023/07/27 12:29:24;;;;;;;5.38;3.67;;;19.70;99.90;;;;;;5120691;27;20331;-41
2023/07/27 12:31:51;;;;;;;5.00;4.45;;;19.70;99.90;;;;;;5139999;27;20628;-41
2023/07/27 12:34:17;;;;;;;3.45;3.10;;;19.70;99.90;;;;;;5139576;27;20082;-40
2023/07/27 12:36:42;;;;;;;2.60;1.95;;;19.70;99.90;;;;;;5119479;27;20038;-41
2023/07/27 12:39:08;;;;;;;2.30;1.40;;;19.80;99.90;;;;;;5132175;27;20076;-41